RJOO(METAR)
07/17 07:00
METAR RJOO 162200Z VRB02KT 9999 FEW006 SCT015 BKN025 25/24 Q1013 RMK
1ST006 3CU015 5CU025 A2992=
戻る
トップページへ戻る
IMOC Co,.Ltd.